Time;durP1;ratioP1;P1;durP2;ratioP2;P2;SDS_P1;SDS_P2;PMS_P1;PMS_P2;Temp;Humidity;BMP_temperature;BMP_pressure;BME280_temperature;BME280_humidity;BME280_pressure;Samples;Min_cycle;Max_cycle;Signal;HPM_P1;HPM_P2
2021/01/20 00:01:06;;;;;;;4.55;3.22;;;5.60;99.90;;;;;;5031913;28;20213;-59
2021/01/20 00:03:33;;;;;;;5.85;3.60;;;5.60;99.90;;;;;;5032160;28;20186;-58
2021/01/20 00:06:00;;;;;;;5.00;3.08;;;5.50;99.90;;;;;;5031971;28;20630;-61
2021/01/20 00:08:28;;;;;;;5.32;2.65;;;5.50;99.90;;;;;;5031830;28;20188;-58
2021/01/20 00:10:55;;;;;;;8.65;4.15;;;5.40;99.90;;;;;;5031647;28;20205;-58
2021/01/20 00:13:22;;;;;;;5.63;3.55;;;5.40;99.90;;;;;;5032251;28;20189;-61
2021/01/20 00:15:49;;;;;;;5.15;3.10;;;5.30;99.90;;;;;;5031977;28;20181;-59
2021/01/20 00:18:17;;;;;;;5.70;3.85;;;5.30;99.90;;;;;;5031869;28;20173;-59
2021/01/20 00:20:45;;;;;;;5.22;3.95;;;5.30;99.90;;;;;;5031442;28;20599;-61
2021/01/20 00:23:12;;;;;;;4.35;2.78;;;5.20;99.90;;;;;;5031813;28;20185;-56
2021/01/20 00:25:39;;;;;;;5.95;3.25;;;5.20;99.90;;;;;;5031621;28;20251;-56
2021/01/20 00:28:07;;;;;;;5.13;2.90;;;5.20;99.90;;;;;;5032003;28;20558;-58
2021/01/20 00:30:34;;;;;;;4.93;3.20;;;5.20;99.90;;;;;;5031942;28;20232;-60
2021/01/20 00:33:02;;;;;;;4.15;3.03;;;5.20;99.90;;;;;;5031988;28;20182;-60
2021/01/20 00:35:31;;;;;;;5.75;3.20;;;5.20;99.90;;;;;;5030779;28;20627;-60
2021/01/20 00:37:59;;;;;;;3.58;3.15;;;5.20;99.90;;;;;;5031466;28;20616;-63
2021/01/20 00:40:26;;;;;;;5.78;3.53;;;5.20;99.90;;;;;;5032070;28;20237;-59
2021/01/20 00:42:53;;;;;;;5.95;3.75;;;5.20;99.90;;;;;;5031712;28;20591;-60
2021/01/20 00:45:21;;;;;;;4.47;2.67;;;5.10;99.90;;;;;;5031502;28;20201;-62
2021/01/20 00:47:48;;;;;;;6.40;4.35;;;5.10;99.90;;;;;;5031916;28;20189;-57
2021/01/20 00:50:16;;;;;;;7.82;4.63;;;5.10;99.90;;;;;;5013813;28;20636;-61
2021/01/20 00:52:44;;;;;;;4.05;3.42;;;5.10;99.90;;;;;;5013480;28;20197;-60
2021/01/20 00:55:14;;;;;;;7.15;3.47;;;5.10;99.90;;;;;;5031475;28;20182;-60
2021/01/20 00:57:43;;;;;;;6.00;3.75;;;5.10;99.90;;;;;;5013783;28;20213;-59
2021/01/20 01:00:12;;;;;;;5.78;4.25;;;5.10;99.90;;;;;;5013509;28;20233;-61
2021/01/20 01:02:45;;;;;;;9.10;4.38;;;5.00;99.90;;;;;;5013623;28;20247;-58
2021/01/20 01:05:13;;;;;;;9.80;5.10;;;5.00;99.90;;;;;;5013690;28;20201;-58
2021/01/20 01:07:42;;;;;;;5.05;3.33;;;5.00;99.90;;;;;;5013656;28;20189;-57
2021/01/20 01:10:11;;;;;;;7.28;4.80;;;5.00;99.90;;;;;;5013594;28;20693;-56
2021/01/20 01:12:56;;;;;;;5.07;3.85;;;5.00;99.90;;;;;;5031616;28;20200;-60
2021/01/20 01:15:24;;;;;;;9.10;5.38;;;5.00;99.90;;;;;;5013881;28;20553;-60
2021/01/20 01:17:51;;;;;;;9.60;4.97;;;5.10;99.90;;;;;;5031714;28;20182;-56
2021/01/20 01:20:19;;;;;;;6.88;4.00;;;5.00;99.90;;;;;;5013640;28;20702;-57
2021/01/20 01:22:46;;;;;;;9.50;5.78;;;5.10;99.90;;;;;;5031491;28;20536;-60
2021/01/20 01:25:17;;;;;;;6.70;5.35;;;5.10;99.90;;;;;;5013776;28;20198;-62
2021/01/20 01:27:50;;;;;;;3.95;3.25;;;5.20;99.90;;;;;;5031318;28;20166;-60
2021/01/20 01:30:19;;;;;;;6.32;5.28;;;5.20;99.90;;;;;;5013152;28;20296;-60
2021/01/20 01:32:46;;;;;;;7.13;5.60;;;5.20;99.90;;;;;;5013430;28;20384;-59
2021/01/20 01:35:21;;;;;;;8.65;6.20;;;5.20;99.90;;;;;;5013454;28;20532;-59
2021/01/20 01:37:58;;;;;;;12.13;5.60;;;5.20;99.90;;;;;;5031282;28;20180;-60
2021/01/20 01:40:37;;;;;;;8.88;6.80;;;5.20;99.90;;;;;;5013343;28;20212;-59
2021/01/20 01:43:17;;;;;;;8.05;6.10;;;5.20;99.90;;;;;;5013648;28;20189;-61
2021/01/20 01:45:57;;;;;;;9.80;7.47;;;5.20;99.90;;;;;;5013251;28;20200;-60
2021/01/20 01:48:25;;;;;;;8.20;6.05;;;5.20;99.90;;;;;;5016207;28;20185;-60
2021/01/20 01:50:52;;;;;;;9.45;6.72;;;5.20;99.90;;;;;;5017289;28;20304;-61
2021/01/20 01:53:20;;;;;;;6.95;5.95;;;5.20;99.90;;;;;;5034873;28;20178;-59
2021/01/20 01:56:09;;;;;;;8.82;5.75;;;5.10;99.90;;;;;;5017342;28;20189;-59
2021/01/20 01:58:44;;;;;;;9.13;6.80;;;5.10;99.90;;;;;;5017050;28;20227;-59
2021/01/20 02:01:18;;;;;;;10.45;7.40;;;5.20;99.90;;;;;;5016821;28;20217;-63
2021/01/20 02:03:53;;;;;;;10.43;6.63;;;5.20;99.90;;;;;;5016812;28;20204;-58
2021/01/20 02:06:24;;;;;;;12.57;7.13;;;5.20;99.90;;;;;;5016552;28;20189;-61
2021/01/20 02:09:00;;;;;;;8.98;8.00;;;5.20;99.90;;;;;;5016549;28;20181;-60
2021/01/20 02:11:46;;;;;;;10.52;8.60;;;5.30;99.90;;;;;;5016048;28;20724;-60
2021/01/20 02:14:27;;;;;;;12.65;8.40;;;5.20;99.90;;;;;;5016515;28;20188;-60
2021/01/20 02:17:21;;;;;;;7.60;5.70;;;5.20;99.90;;;;;;5016538;28;20190;-59
2021/01/20 02:20:20;;;;;;;8.88;6.00;;;5.20;99.90;;;;;;5016643;28;20189;-61
2021/01/20 02:22:53;;;;;;;15.75;7.43;;;5.20;99.90;;;;;;5016683;28;20722;-55
2021/01/20 02:26:01;;;;;;;12.75;6.20;;;5.20;99.90;;;;;;4997774;28;20563;-60
2021/01/20 02:29:06;;;;;;;6.93;6.22;;;5.20;99.90;;;;;;5016767;28;20599;-59
2021/01/20 02:31:43;;;;;;;11.48;7.65;;;5.10;99.90;;;;;;5012273;28;20235;-60
2021/01/20 02:34:13;;;;;;;8.30;6.15;;;5.10;99.90;;;;;;5016701;28;20216;-59
2021/01/20 02:36:42;;;;;;;9.82;6.75;;;5.10;99.90;;;;;;5016353;28;20197;-60
2021/01/20 02:39:40;;;;;;;11.35;4.25;;;5.10;99.90;;;;;;5016431;28;20315;-59
2021/01/20 02:42:26;;;;;;;8.57;5.20;;;5.10;99.90;;;;;;5034742;28;20250;-59
2021/01/20 02:45:01;;;;;;;7.38;5.22;;;5.10;99.90;;;;;;5016926;28;20204;-60
2021/01/20 02:47:44;;;;;;;6.95;5.18;;;5.10;99.90;;;;;;5016615;28;20216;-60
2021/01/20 02:50:17;;;;;;;7.80;6.20;;;5.10;99.90;;;;;;5016393;28;20237;-60
2021/01/20 02:52:53;;;;;;;5.45;4.47;;;5.10;99.90;;;;;;5016324;28;20186;-59
2021/01/20 02:55:43;;;;;;;10.27;5.57;;;5.10;99.90;;;;;;5034367;28;20210;-61
2021/01/20 02:58:29;;;;;;;8.20;6.63;;;5.10;99.90;;;;;;5033966;28;20228;-58
2021/01/20 03:01:31;;;;;;;9.13;6.65;;;5.00;99.90;;;;;;5031408;28;20220;-60
2021/01/20 03:04:01;;;;;;;8.93;7.45;;;5.00;99.90;;;;;;5034530;28;20189;-60
2021/01/20 03:06:30;;;;;;;6.78;6.07;;;5.00;99.90;;;;;;5033960;28;20224;-60
2021/01/20 03:08:58;;;;;;;12.90;9.48;;;5.00;99.90;;;;;;5033818;28;20186;-55
2021/01/20 03:11:25;;;;;;;9.27;7.00;;;5.00;99.90;;;;;;5033427;28;20209;-59
2021/01/20 03:13:54;;;;;;;10.43;7.00;;;5.00;99.90;;;;;;5033936;28;20228;-59
2021/01/20 03:16:26;;;;;;;10.18;8.00;;;5.00;99.90;;;;;;5033760;28;20185;-59
2021/01/20 03:18:53;;;;;;;13.13;9.15;;;5.00;99.90;;;;;;5033791;28;20192;-59
2021/01/20 03:21:21;;;;;;;14.85;8.50;;;5.10;99.90;;;;;;5033756;28;20209;-59
2021/01/20 03:23:49;;;;;;;10.20;8.32;;;5.10;99.90;;;;;;5033269;28;20198;-59
2021/01/20 03:26:16;;;;;;;10.57;8.98;;;5.00;99.90;;;;;;5033441;28;20177;-56
2021/01/20 03:28:43;;;;;;;10.02;8.20;;;5.00;99.90;;;;;;5033653;28;20663;-60
2021/01/20 03:31:10;;;;;;;8.45;7.30;;;5.00;99.90;;;;;;5033958;28;20608;-51
2021/01/20 03:33:37;;;;;;;12.20;8.38;;;5.10;99.90;;;;;;5033388;28;20186;-59
2021/01/20 03:36:05;;;;;;;9.65;7.85;;;5.10;99.90;;;;;;5033750;28;20181;-56
2021/01/20 03:38:33;;;;;;;15.98;8.95;;;5.10;99.90;;;;;;5034208;28;20223;-54
2021/01/20 03:41:00;;;;;;;11.10;9.02;;;5.10;99.90;;;;;;5033899;28;20292;-59
2021/01/20 03:43:27;;;;;;;9.80;7.85;;;5.00;99.90;;;;;;5033457;28;20243;-59
2021/01/20 03:45:54;;;;;;;10.13;7.82;;;4.90;99.90;;;;;;5032845;28;20208;-54
2021/01/20 03:48:21;;;;;;;10.40;7.68;;;4.90;99.90;;;;;;5032853;28;20170;-58
2021/01/20 03:50:49;;;;;;;13.48;7.30;;;4.90;99.90;;;;;;5032446;28;20667;-60
2021/01/20 03:53:16;;;;;;;7.07;6.47;;;4.80;99.90;;;;;;5033552;28;20201;-59
2021/01/20 03:55:44;;;;;;;7.78;6.25;;;4.80;99.90;;;;;;5032992;28;20193;-56
2021/01/20 03:58:11;;;;;;;8.05;5.88;;;4.70;99.90;;;;;;5033255;28;20205;-59
2021/01/20 04:00:38;;;;;;;8.80;5.72;;;4.60;99.90;;;;;;5032503;28;20209;-59
2021/01/20 04:03:05;;;;;;;5.25;3.67;;;4.60;99.90;;;;;;5016210;28;20201;-60
2021/01/20 04:05:53;;;;;;;8.15;5.10;;;4.50;99.90;;;;;;5032932;28;20225;-60
2021/01/20 04:08:20;;;;;;;7.30;4.70;;;4.40;99.90;;;;;;5033626;28;20197;-60
2021/01/20 04:10:48;;;;;;;8.05;5.90;;;4.40;99.90;;;;;;5033539;28;20240;-59
2021/01/20 04:13:15;;;;;;;10.65;5.70;;;4.30;99.90;;;;;;5033707;28;20546;-58
2021/01/20 04:15:42;;;;;;;7.90;7.10;;;4.30;99.90;;;;;;5033928;28;20178;-60
2021/01/20 04:18:10;;;;;;;7.07;5.22;;;4.20;99.90;;;;;;5034254;28;20201;-59
2021/01/20 04:20:37;;;;;;;6.30;5.57;;;4.20;99.90;;;;;;5033510;28;20232;-59
2021/01/20 04:23:04;;;;;;;5.75;3.85;;;4.10;99.90;;;;;;5034030;28;20183;-59
2021/01/20 04:25:31;;;;;;;6.50;4.63;;;4.10;99.90;;;;;;5033409;28;20251;-58
2021/01/20 04:27:59;;;;;;;4.38;3.97;;;4.20;99.90;;;;;;5033130;28;20185;-58
2021/01/20 04:30:26;;;;;;;6.47;4.95;;;4.20;99.90;;;;;;5034009;28;20635;-60
2021/01/20 04:32:54;;;;;;;4.85;3.85;;;4.20;99.90;;;;;;5034338;28;20182;-59
2021/01/20 04:35:21;;;;;;;5.88;4.30;;;4.20;99.90;;;;;;5033238;28;20184;-58
2021/01/20 04:37:48;;;;;;;3.92;3.30;;;4.20;99.90;;;;;;5015373;28;20293;-59
2021/01/20 04:40:16;;;;;;;5.45;4.22;;;4.20;99.90;;;;;;5033940;28;20263;-58
2021/01/20 04:42:44;;;;;;;6.53;3.60;;;4.20;99.90;;;;;;5033882;28;20615;-56
2021/01/20 04:45:12;;;;;;;9.05;4.30;;;4.20;99.90;;;;;;5034032;28;20199;-58
2021/01/20 04:47:40;;;;;;;4.35;3.20;;;4.10;99.90;;;;;;5033699;28;20177;-60
2021/01/20 04:50:11;;;;;;;4.70;3.40;;;4.20;99.90;;;;;;5032709;28;20201;-57
2021/01/20 04:52:43;;;;;;;2.78;1.88;;;4.20;99.90;;;;;;5032248;28;20205;-59
2021/01/20 04:55:11;;;;;;;3.05;2.63;;;4.20;99.90;;;;;;5032709;28;20177;-59
2021/01/20 04:57:38;;;;;;;3.38;3.08;;;4.20;99.90;;;;;;5032780;28;20555;-58
2021/01/20 05:00:07;;;;;;;8.10;3.53;;;4.30;99.90;;;;;;5032482;28;20212;-58
2021/01/20 05:02:36;;;;;;;4.00;3.30;;;4.30;99.90;;;;;;5033276;28;20182;-59
2021/01/20 05:05:04;;;;;;;4.95;4.10;;;4.30;99.90;;;;;;5033276;28;20174;-58
2021/01/20 05:07:32;;;;;;;4.07;2.63;;;4.20;99.90;;;;;;5033973;28;20197;-56
2021/01/20 05:09:59;;;;;;;2.65;2.25;;;4.30;99.90;;;;;;5033872;28;20212;-59
2021/01/20 05:12:37;;;;;;;4.90;3.10;;;4.30;99.90;;;;;;5033235;28;20201;-58
2021/01/20 05:15:07;;;;;;;2.75;2.17;;;4.30;99.90;;;;;;5033175;28;20193;-59
2021/01/20 05:17:36;;;;;;;11.10;3.88;;;4.30;99.90;;;;;;5032933;28;20293;-56
2021/01/20 05:20:04;;;;;;;3.08;2.88;;;4.30;99.90;;;;;;5015690;28;20213;-58
2021/01/20 05:22:31;;;;;;;2.53;2.33;;;4.30;99.90;;;;;;5034822;28;20201;-60
2021/01/20 05:25:00;;;;;;;5.65;3.00;;;4.30;99.90;;;;;;5038625;28;20185;-58
2021/01/20 05:27:28;;;;;;;3.40;2.67;;;4.30;99.90;;;;;;5037917;28;20237;-59
2021/01/20 05:30:05;;;;;;;3.70;2.53;;;4.30;99.90;;;;;;5036795;28;20169;-59
2021/01/20 05:32:32;;;;;;;3.42;2.28;;;4.30;99.90;;;;;;5037104;28;20287;-60
2021/01/20 05:35:03;;;;;;;5.70;2.22;;;4.20;99.90;;;;;;5037761;28;20178;-59
2021/01/20 05:37:30;;;;;;;3.25;2.95;;;4.30;99.90;;;;;;5036085;28;20177;-57
2021/01/20 05:40:09;;;;;;;2.92;2.10;;;4.20;99.90;;;;;;5035319;28;20204;-49
2021/01/20 05:42:44;;;;;;;2.28;2.08;;;4.20;99.90;;;;;;5034393;28;20268;-51
2021/01/20 05:45:12;;;;;;;8.02;3.25;;;4.20;99.90;;;;;;5034663;28;20514;-51
2021/01/20 05:47:39;;;;;;;3.13;2.80;;;4.20;99.90;;;;;;5034390;28;20190;-54
2021/01/20 05:50:08;;;;;;;2.67;2.38;;;4.20;99.90;;;;;;5034588;28;20202;-51
2021/01/20 05:52:36;;;;;;;3.72;2.63;;;4.20;99.90;;;;;;5034884;28;20292;-54
2021/01/20 05:55:13;;;;;;;3.03;1.42;;;4.30;99.90;;;;;;5034421;28;20280;-50
2021/01/20 05:57:51;;;;;;;2.60;2.00;;;4.20;99.90;;;;;;5026743;28;20189;-52
2021/01/20 06:00:19;;;;;;;5.78;3.80;;;4.10;99.90;;;;;;5034249;28;20723;-53
2021/01/20 06:02:47;;;;;;;4.55;3.00;;;4.00;99.90;;;;;;5034274;28;20177;-48
2021/01/20 06:05:16;;;;;;;4.07;3.60;;;4.00;99.90;;;;;;5051123;28;20260;-48
2021/01/20 06:07:45;;;;;;;3.17;2.33;;;3.90;99.90;;;;;;5054369;28;20269;-51
2021/01/20 06:10:12;;;;;;;2.65;2.45;;;3.90;99.90;;;;;;5054109;28;20248;-51
2021/01/20 06:12:39;;;;;;;4.95;3.22;;;3.80;99.90;;;;;;5053763;28;20193;-55
2021/01/20 06:15:07;;;;;;;5.88;4.15;;;3.70;99.90;;;;;;5054259;28;20185;-53
2021/01/20 06:17:36;;;;;;;6.75;3.03;;;3.70;99.90;;;;;;5054132;28;20747;-50
2021/01/20 06:20:06;;;;;;;6.40;3.85;;;3.60;99.90;;;;;;5042206;28;20269;-52
2021/01/20 06:22:39;;;;;;;4.20;2.92;;;3.70;99.90;;;;;;5034002;28;20272;-53
2021/01/20 06:25:11;;;;;;;2.78;1.42;;;3.80;99.90;;;;;;5035047;28;20178;-53
2021/01/20 06:27:43;;;;;;;3.83;3.10;;;3.80;99.90;;;;;;5035117;28;20261;-54
2021/01/20 06:30:17;;;;;;;3.92;3.30;;;3.90;99.90;;;;;;5034596;28;20225;-55
2021/01/20 06:32:46;;;;;;;4.32;3.22;;;3.90;99.90;;;;;;5035668;28;20198;-57
2021/01/20 06:35:14;;;;;;;7.40;3.75;;;4.00;99.90;;;;;;5035478;28;20550;-53
2021/01/20 06:37:44;;;;;;;5.50;4.05;;;4.10;99.90;;;;;;5035037;28;20212;-54
2021/01/20 06:40:39;;;;;;;5.43;3.85;;;4.10;99.90;;;;;;5034113;28;20854;-60
2021/01/20 06:43:32;;;;;;;5.38;2.55;;;4.10;99.90;;;;;;4989112;28;20234;-58
2021/01/20 06:46:26;;;;;;;5.30;3.53;;;4.10;99.90;;;;;;5034736;28;20256;-60
2021/01/20 06:49:10;;;;;;;3.22;2.92;;;4.00;99.90;;;;;;5034617;28;20244;-56
2021/01/20 06:51:40;;;;;;;2.78;2.10;;;4.00;99.90;;;;;;5032530;28;20721;-57
2021/01/20 06:54:13;;;;;;;4.07;2.70;;;3.90;99.90;;;;;;5032053;28;20182;-57
2021/01/20 06:56:49;;;;;;;3.45;2.80;;;3.90;99.90;;;;;;5035561;28;20213;-57
2021/01/20 06:59:21;;;;;;;5.93;2.67;;;4.00;99.90;;;;;;5035720;28;20189;-60
2021/01/20 07:02:16;;;;;;;4.45;2.83;;;3.90;99.90;;;;;;5034940;28;20207;-58
2021/01/20 07:04:57;;;;;;;3.00;2.75;;;3.90;99.90;;;;;;5051119;28;20185;-57
2021/01/20 07:07:50;;;;;;;5.88;5.28;;;4.00;99.90;;;;;;5055699;28;20184;-59
2021/01/20 07:10:25;;;;;;;11.18;3.45;;;4.00;99.90;;;;;;5055459;28;20296;-59
2021/01/20 07:13:16;;;;;;;5.40;3.78;;;4.00;99.90;;;;;;5054573;28;20207;-57
2021/01/20 07:15:54;;;;;;;8.98;3.67;;;4.10;99.90;;;;;;5050096;28;20208;-59
2021/01/20 07:18:24;;;;;;;5.05;2.50;;;4.10;99.90;;;;;;5054407;28;20191;-57
2021/01/20 07:20:52;;;;;;;2.58;2.38;;;4.20;99.90;;;;;;5054892;28;20212;-58
2021/01/20 07:23:20;;;;;;;3.85;3.45;;;4.30;99.90;;;;;;5055827;28;20173;-54
2021/01/20 07:25:52;;;;;;;5.97;2.85;;;4.40;99.90;;;;;;5053496;28;20705;-57
2021/01/20 07:28:21;;;;;;;4.68;2.95;;;4.40;99.90;;;;;;5052715;28;20677;-55
2021/01/20 07:30:49;;;;;;;3.60;2.75;;;4.40;99.90;;;;;;5053239;28;20283;-58
2021/01/20 07:33:18;;;;;;;3.15;2.80;;;4.40;99.90;;;;;;5053064;28;20196;-56
2021/01/20 07:35:46;;;;;;;3.38;2.25;;;4.40;99.90;;;;;;5053188;28;20612;-54
2021/01/20 07:38:13;;;;;;;3.00;1.98;;;4.40;99.90;;;;;;5053225;28;20242;-57
2021/01/20 07:40:43;;;;;;;4.65;3.42;;;4.40;99.90;;;;;;5053149;28;20642;-55
2021/01/20 07:43:22;;;;;;;3.78;2.85;;;4.40;99.90;;;;;;5053089;28;20189;-50
2021/01/20 07:45:50;;;;;;;4.53;2.47;;;4.40;99.90;;;;;;5052414;28;20295;-51
2021/01/20 07:48:27;;;;;;;2.28;2.08;;;4.40;99.90;;;;;;5034958;28;20193;-57
2021/01/20 07:50:54;;;;;;;4.82;2.55;;;4.40;99.90;;;;;;5052990;28;20693;-58
2021/01/20 07:53:21;;;;;;;2.80;2.42;;;4.50;99.90;;;;;;5052632;28;20211;-53
2021/01/20 07:55:54;;;;;;;6.70;2.78;;;4.60;99.90;;;;;;5053497;28;20260;-56
2021/01/20 07:58:29;;;;;;;2.85;2.33;;;4.70;99.90;;;;;;5052538;28;20181;-55
2021/01/20 08:00:57;;;;;;;2.95;1.83;;;4.80;99.90;;;;;;5052348;28;20204;-56
2021/01/20 08:03:32;;;;;;;2.28;2.10;;;4.80;99.90;;;;;;5052770;28;20256;-56
2021/01/20 08:06:01;;;;;;;1.77;1.65;;;4.80;99.90;;;;;;5052635;28;20200;-56
2021/01/20 08:08:28;;;;;;;3.95;2.20;;;4.90;99.90;;;;;;5052945;28;20176;-57
2021/01/20 08:10:58;;;;;;;2.42;1.85;;;4.90;99.90;;;;;;5052051;28;20255;-57
2021/01/20 08:13:27;;;;;;;4.63;2.17;;;4.90;99.90;;;;;;5052448;28;20209;-58
2021/01/20 08:15:55;;;;;;;1.38;1.13;;;5.00;99.90;;;;;;5052705;28;20250;-57
2021/01/20 08:18:23;;;;;;;1.92;1.25;;;5.10;99.90;;;;;;5052425;28;20189;-53
2021/01/20 08:20:51;;;;;;;1.85;1.65;;;5.10;99.90;;;;;;5052550;28;20205;-58
2021/01/20 08:23:36;;;;;;;2.38;1.92;;;5.30;99.90;;;;;;5052328;28;20226;-54
2021/01/20 08:26:04;;;;;;;1.98;1.75;;;5.30;99.90;;;;;;5052563;28;20654;-55
2021/01/20 08:28:32;;;;;;;4.95;2.70;;;5.40;99.90;;;;;;5052220;28;20631;-53
2021/01/20 08:31:19;;;;;;;6.50;3.00;;;5.40;99.90;;;;;;5051981;28;20213;-57
2021/01/20 08:33:46;;;;;;;5.30;2.60;;;5.60;99.90;;;;;;5051998;28;20242;-55
2021/01/20 08:36:23;;;;;;;2.65;2.00;;;5.70;99.90;;;;;;5034107;28;20276;-55
2021/01/20 08:39:06;;;;;;;5.85;2.40;;;5.70;99.90;;;;;;5052001;28;20176;-53
2021/01/20 08:41:34;;;;;;;4.97;1.90;;;5.70;99.90;;;;;;5052403;28;20212;-58
2021/01/20 08:44:17;;;;;;;4.05;2.33;;;5.70;99.90;;;;;;5051888;28;20177;-58
2021/01/20 08:46:53;;;;;;;3.00;1.98;;;5.70;99.90;;;;;;5040114;28;20209;-57
2021/01/20 08:49:20;;;;;;;3.25;2.17;;;5.70;99.90;;;;;;5031829;28;20224;-58
2021/01/20 08:51:56;;;;;;;2.70;2.20;;;5.70;99.90;;;;;;5032016;28;20271;-56
2021/01/20 08:54:23;;;;;;;3.25;2.25;;;5.70;99.90;;;;;;5032345;28;20173;-57
2021/01/20 08:56:51;;;;;;;3.08;2.20;;;5.70;99.90;;;;;;5032064;28;20251;-56
2021/01/20 08:59:18;;;;;;;2.30;2.10;;;5.70;99.90;;;;;;5036188;28;20185;-58
2021/01/20 09:01:46;;;;;;;3.92;2.55;;;5.80;99.90;;;;;;5018121;28;20575;-54
2021/01/20 09:04:14;;;;;;;4.05;2.83;;;5.80;99.90;;;;;;5035788;28;20181;-56
2021/01/20 09:06:41;;;;;;;2.40;1.73;;;5.90;99.90;;;;;;5035855;28;20170;-56
2021/01/20 09:09:08;;;;;;;1.65;1.42;;;5.90;99.90;;;;;;5035901;28;20178;-56
2021/01/20 09:11:39;;;;;;;3.78;1.77;;;5.90;99.90;;;;;;5035576;28;20232;-58
2021/01/20 09:14:07;;;;;;;2.60;1.52;;;6.00;99.90;;;;;;5035928;28;20194;-57
2021/01/20 09:16:34;;;;;;;4.35;2.03;;;6.10;99.90;;;;;;5036220;28;20185;-55
2021/01/20 09:19:02;;;;;;;4.93;4.53;;;6.20;99.90;;;;;;5036281;28;20642;-57
2021/01/20 09:21:30;;;;;;;1.55;1.45;;;6.20;99.90;;;;;;5035915;28;20208;-52
2021/01/20 09:23:57;;;;;;;2.28;1.92;;;6.30;99.90;;;;;;5036107;28;20272;-53
2021/01/20 09:26:24;;;;;;;3.40;2.10;;;6.40;99.90;;;;;;5035982;28;20597;-55
2021/01/20 09:28:52;;;;;;;5.22;2.70;;;6.30;99.90;;;;;;5035801;28;20189;-57
2021/01/20 09:31:19;;;;;;;4.22;1.63;;;6.30;99.90;;;;;;5018331;28;20219;-53
2021/01/20 09:33:46;;;;;;;5.80;2.95;;;6.30;99.90;;;;;;5036586;28;20189;-56
2021/01/20 09:36:14;;;;;;;2.30;1.88;;;6.20;99.90;;;;;;5036263;28;20205;-56
2021/01/20 09:38:42;;;;;;;1.50;1.23;;;6.20;99.90;;;;;;5035837;28;20623;-56
2021/01/20 09:41:10;;;;;;;2.78;1.92;;;6.20;99.90;;;;;;5035709;28;20205;-55
2021/01/20 09:43:38;;;;;;;1.67;1.58;;;6.10;99.90;;;;;;5035600;28;20165;-58
2021/01/20 09:46:05;;;;;;;3.33;1.70;;;6.20;99.90;;;;;;5069257;22;20242;-57
2021/01/20 09:48:32;;;;;;;2.30;1.63;;;6.20;99.90;;;;;;5066249;28;20668;-60
2021/01/20 09:50:59;;;;;;;2.25;2.05;;;6.20;99.90;;;;;;5074256;28;20204;-59
2021/01/20 09:53:27;;;;;;;2.13;1.33;;;6.30;99.90;;;;;;5056300;28;20227;-58
2021/01/20 09:55:54;;;;;;;1.90;1.40;;;6.30;99.90;;;;;;5075773;28;20214;-61
2021/01/20 09:58:22;;;;;;;2.95;2.05;;;6.50;99.90;;;;;;5075927;28;20192;-57
2021/01/20 10:00:49;;;;;;;5.68;2.45;;;6.60;99.90;;;;;;5075248;28;20218;-58
2021/01/20 10:03:16;;;;;;;2.15;1.55;;;6.70;99.90;;;;;;5074481;28;20725;-58
2021/01/20 10:05:43;;;;;;;3.50;1.42;;;6.80;99.90;;;;;;5075204;28;20173;-60
2021/01/20 10:08:10;;;;;;;4.03;2.63;;;6.90;99.90;;;;;;5074124;28;20195;-60
2021/01/20 10:10:38;;;;;;;4.82;2.45;;;7.10;99.90;;;;;;5057670;28;20588;-60
2021/01/20 10:13:05;;;;;;;2.83;2.03;;;7.20;99.90;;;;;;5075223;28;20204;-60
2021/01/20 10:15:34;;;;;;;2.08;1.92;;;7.10;99.90;;;;;;5074727;28;20195;-60
2021/01/20 10:18:01;;;;;;;1.90;1.70;;;7.10;99.90;;;;;;5075274;28;20206;-58
2021/01/20 10:20:29;;;;;;;3.08;2.10;;;7.20;99.90;;;;;;5075011;28;20208;-60
2021/01/20 10:22:56;;;;;;;1.95;1.75;;;7.10;99.90;;;;;;5075512;28;20195;-60
2021/01/20 10:25:31;;;;;;;3.03;2.25;;;7.20;99.90;;;;;;5075062;28;20196;-61
2021/01/20 10:28:00;;;;;;;2.05;1.90;;;7.30;99.90;;;;;;5074881;28;20195;-57
2021/01/20 10:30:27;;;;;;;5.28;1.65;;;7.40;99.90;;;;;;5074207;28;20208;-58
2021/01/20 10:32:55;;;;;;;3.08;1.52;;;7.50;99.90;;;;;;5075023;28;20635;-61
2021/01/20 10:35:23;;;;;;;3.00;2.00;;;7.50;99.90;;;;;;5076942;28;20181;-57
2021/01/20 10:37:50;;;;;;;2.63;2.00;;;7.50;99.90;;;;;;5080599;28;20194;-58
2021/01/20 10:40:17;;;;;;;2.70;2.05;;;7.60;99.90;;;;;;5078516;28;20212;-59
2021/01/20 10:42:44;;;;;;;3.20;2.08;;;7.60;99.90;;;;;;5075559;28;20563;-59
2021/01/20 10:45:13;;;;;;;8.18;2.20;;;7.50;99.90;;;;;;5076266;28;20363;-60
2021/01/20 10:47:40;;;;;;;2.17;1.30;;;7.60;99.90;;;;;;5075317;28;20180;-57
2021/01/20 10:50:08;;;;;;;1.60;1.25;;;7.70;99.90;;;;;;5074963;28;20204;-59
2021/01/20 10:52:35;;;;;;;3.50;1.60;;;7.70;99.90;;;;;;5074883;28;20200;-58
2021/01/20 10:55:02;;;;;;;7.78;2.38;;;7.80;99.90;;;;;;5075287;28;20224;-61
2021/01/20 10:57:29;;;;;;;2.95;2.38;;;7.90;99.90;;;;;;5074932;28;20180;-59
2021/01/20 10:59:57;;;;;;;3.15;1.40;;;8.00;99.90;;;;;;5075352;28;20203;-61
2021/01/20 11:02:25;;;;;;;3.08;1.70;;;8.10;99.90;;;;;;5074853;28;20238;-58
2021/01/20 11:04:52;;;;;;;2.92;2.33;;;8.20;99.90;;;;;;5074489;28;20219;-60
2021/01/20 11:07:19;;;;;;;2.20;1.80;;;8.20;99.90;;;;;;5074170;28;20184;-59
2021/01/20 11:09:48;;;;;;;2.50;1.83;;;8.20;99.90;;;;;;5074842;28;20192;-61
2021/01/20 11:12:15;;;;;;;2.50;1.95;;;8.30;99.90;;;;;;5074617;28;20672;-61
2021/01/20 11:14:42;;;;;;;3.20;2.13;;;8.30;99.90;;;;;;5074825;28;20213;-59
2021/01/20 11:17:09;;;;;;;2.17;1.40;;;8.40;99.90;;;;;;5074090;28;20267;-61
2021/01/20 11:19:37;;;;;;;2.13;1.60;;;8.50;99.90;;;;;;5072367;28;20188;-61
2021/01/20 11:22:04;;;;;;;5.43;1.27;;;8.60;99.90;;;;;;5074081;28;20191;-59
2021/01/20 11:24:31;;;;;;;3.25;1.63;;;8.50;99.90;;;;;;5073908;28;20196;-60
2021/01/20 11:26:59;;;;;;;4.13;2.22;;;8.60;99.90;;;;;;5072954;28;20207;-58
2021/01/20 11:29:26;;;;;;;4.60;2.03;;;8.70;99.90;;;;;;5072313;28;20197;-59
2021/01/20 11:31:53;;;;;;;1.85;1.48;;;8.60;99.90;;;;;;5072397;28;20215;-59
2021/01/20 11:34:21;;;;;;;2.30;2.03;;;8.60;99.90;;;;;;5072520;28;20191;-59
2021/01/20 11:36:49;;;;;;;2.58;2.13;;;8.70;99.90;;;;;;5072707;28;20246;-59
2021/01/20 11:39:16;;;;;;;2.53;1.88;;;8.80;99.90;;;;;;5072819;28;20655;-59
2021/01/20 11:41:43;;;;;;;2.40;1.70;;;8.90;99.90;;;;;;5072534;28;20623;-61
2021/01/20 11:44:10;;;;;;;2.35;1.42;;;8.90;99.90;;;;;;5072933;28;20173;-57
2021/01/20 11:46:37;;;;;;;2.40;1.73;;;8.90;99.90;;;;;;5072481;28;20249;-60
2021/01/20 11:49:09;;;;;;;2.08;1.48;;;8.90;99.90;;;;;;5072893;28;20711;-59
2021/01/20 11:51:38;;;;;;;2.20;1.38;;;8.90;99.90;;;;;;5072094;28;20757;-60
2021/01/20 11:54:07;;;;;;;2.88;1.83;;;8.80;99.90;;;;;;5072275;28;20282;-60
2021/01/20 11:56:34;;;;;;;2.40;2.20;;;8.80;99.90;;;;;;5072760;28;20644;-57
2021/01/20 11:59:01;;;;;;;4.70;2.30;;;8.70;99.90;;;;;;5073329;28;20180;-60
2021/01/20 12:01:32;;;;;;;3.78;1.48;;;8.70;99.90;;;;;;5073485;28;20207;-60
2021/01/20 12:03:59;;;;;;;3.00;1.50;;;8.70;99.90;;;;;;5075347;28;20218;-59
2021/01/20 12:06:26;;;;;;;1.90;1.33;;;8.80;99.90;;;;;;5073240;28;20275;-61
2021/01/20 12:08:54;;;;;;;2.70;1.85;;;8.70;99.90;;;;;;5074074;28;20172;-62
2021/01/20 12:11:23;;;;;;;2.25;1.45;;;8.80;99.90;;;;;;5054908;28;20777;-57
2021/01/20 12:13:51;;;;;;;4.18;1.77;;;8.90;99.90;;;;;;5074525;28;20212;-59
2021/01/20 12:16:18;;;;;;;2.42;1.40;;;8.90;99.90;;;;;;5074531;28;20192;-62
2021/01/20 12:18:45;;;;;;;4.20;1.58;;;8.90;99.90;;;;;;5074301;28;20176;-59
2021/01/20 12:21:13;;;;;;;2.22;1.33;;;9.00;99.90;;;;;;5074234;28;20615;-57
2021/01/20 12:23:40;;;;;;;3.05;1.10;;;9.10;99.90;;;;;;5073770;28;20191;-60
2021/01/20 12:26:07;;;;;;;2.95;1.92;;;9.10;99.90;;;;;;5074216;28;20197;-59
2021/01/20 12:28:36;;;;;;;3.20;1.38;;;9.10;99.90;;;;;;5073513;28;20644;-61
2021/01/20 12:31:03;;;;;;;2.15;1.63;;;9.10;99.90;;;;;;5072349;28;20203;-60
2021/01/20 12:33:30;;;;;;;3.13;1.55;;;9.20;99.90;;;;;;5072474;28;20219;-58
2021/01/20 12:35:58;;;;;;;1.30;1.15;;;9.20;99.90;;;;;;5072477;28;20225;-57
2021/01/20 12:38:25;;;;;;;2.95;1.55;;;9.20;99.90;;;;;;5071903;28;20214;-59
2021/01/20 12:40:52;;;;;;;3.30;2.13;;;9.20;99.90;;;;;;5071683;28;20226;-62
2021/01/20 12:43:19;;;;;;;2.50;1.45;;;9.20;99.90;;;;;;5071891;28;20169;-59
2021/01/20 12:45:47;;;;;;;3.05;1.48;;;9.20;99.90;;;;;;5072189;28;20200;-60
2021/01/20 12:48:14;;;;;;;2.38;2.17;;;9.20;99.90;;;;;;5072626;28;20192;-60
2021/01/20 12:50:42;;;;;;;1.98;1.30;;;9.20;99.90;;;;;;5072183;28;20212;-61
2021/01/20 12:53:09;;;;;;;1.63;1.52;;;9.20;99.90;;;;;;5072306;28;20569;-59
2021/01/20 12:55:36;;;;;;;2.50;2.00;;;9.30;99.90;;;;;;5071963;28;20196;-57
2021/01/20 12:58:03;;;;;;;4.70;1.50;;;9.20;99.90;;;;;;5072306;28;20215;-59
2021/01/20 13:00:30;;;;;;;1.55;1.00;;;9.20;99.90;;;;;;5072787;28;20218;-59
2021/01/20 13:02:58;;;;;;;2.20;1.15;;;9.30;99.90;;;;;;5072726;28;20511;-58
2021/01/20 13:05:25;;;;;;;2.00;1.10;;;9.30;99.90;;;;;;5072561;28;20184;-59
2021/01/20 13:07:52;;;;;;;2.42;1.40;;;9.30;99.90;;;;;;5071722;28;20216;-59
2021/01/20 13:10:19;;;;;;;4.95;1.63;;;9.20;99.90;;;;;;5073559;28;20207;-61
2021/01/20 13:12:47;;;;;;;2.53;1.95;;;9.20;99.90;;;;;;5073882;28;20693;-60